Time;durP1;ratioP1;P1;durP2;ratioP2;P2;SDS_P1;SDS_P2;PMS_P1;PMS_P2;Temp;Humidity;BMP_temperature;BMP_pressure;BME280_temperature;BME280_humidity;BME280_pressure;Samples;Min_cycle;Max_cycle;Signal;HPM_P1;HPM_P2
2023/06/28 00:00:06;;;;;;;6.13;2.10;;;;;;;;;;4903371;29;20214;-67
2023/06/28 00:10:40;;;;;;;5.73;2.53;;;;;;;;;;4916925;29;20265;-67
2023/06/28 00:17:00;;;;;;;7.07;2.20;;;;;;;;;;4927871;29;20312;-67
2023/06/28 00:23:27;;;;;;;10.43;2.60;;;;;;;;;;5007684;28;20186;-67
2023/06/28 00:30:05;;;;;;;7.73;2.50;;;;;;;;;;5007347;28;21014;-67
2023/06/28 00:36:44;;;;;;;4.93;2.00;;;;;;;;;;5007454;28;20184;-67
2023/06/28 00:43:46;;;;;;;7.63;2.70;;;;;;;;;;4987508;28;20211;-67
2023/06/28 00:50:07;;;;;;;5.60;2.13;;;;;;;;;;5007343;28;20207;-67
2023/06/28 01:37:28;;;;;;;9.17;3.60;;;;;;;;;;4930725;29;20189;-67
2023/06/28 01:43:55;;;;;;;8.50;3.90;;;;;;;;;;4914197;29;20226;-67
2023/06/28 01:50:23;;;;;;;11.40;3.67;;;;;;;;;;4876868;29;20323;-68
2023/06/28 01:56:51;;;;;;;12.90;3.83;;;;;;;;;;4952244;29;20282;-67
2023/06/28 02:03:17;;;;;;;11.63;3.80;;;;;;;;;;4951765;29;20261;-67
2023/06/28 02:09:43;;;;;;;9.13;3.77;;;;;;;;;;4952585;28;20177;-67
2023/06/28 02:16:09;;;;;;;10.10;3.63;;;;;;;;;;4970563;28;20299;-67
2023/06/28 02:22:36;;;;;;;8.10;3.23;;;;;;;;;;4970967;28;20257;-67
2023/06/28 02:29:03;;;;;;;8.27;3.53;;;;;;;;;;4968509;28;20172;-68
2023/06/28 02:39:33;;;;;;;8.13;3.40;;;;;;;;;;4944359;28;20221;-68
2023/06/28 02:45:59;;;;;;;11.77;4.07;;;;;;;;;;4960112;28;20283;-68
2023/06/28 02:57:05;;;;;;;13.23;4.87;;;;;;;;;;4933229;28;24847;-68
2023/06/28 03:08:00;;;;;;;12.60;4.73;;;;;;;;;;4929299;28;20368;-68
2023/06/28 03:14:27;;;;;;;10.07;4.57;;;;;;;;;;4937557;28;20305;-68
2023/06/28 03:20:52;;;;;;;9.83;4.43;;;;;;;;;;4959448;28;20251;-68
2023/06/28 03:31:49;;;;;;;10.23;5.07;;;;;;;;;;4882404;29;20755;-66
2023/06/28 04:04:38;;;;;;;16.27;5.50;;;;;;;;;;4908803;29;20612;-68
2023/06/28 04:11:04;;;;;;;10.53;4.90;;;;;;;;;;4915831;29;20239;-69
2023/06/28 04:17:30;;;;;;;13.83;5.80;;;;;;;;;;4976808;28;20191;-69
2023/06/28 04:23:57;;;;;;;9.00;4.40;;;;;;;;;;4988702;28;20179;-70
2023/06/28 04:30:24;;;;;;;9.53;5.13;;;;;;;;;;4991543;28;20257;-68
2023/06/28 04:45:56;;;;;;;8.17;4.30;;;;;;;;;;4894160;29;20693;-69
2023/06/28 04:52:23;;;;;;;10.13;3.60;;;;;;;;;;4911074;29;20210;-68
2023/06/28 05:02:50;;;;;;;6.93;3.27;;;;;;;;;;4912638;29;20178;-68
2023/06/28 05:09:16;;;;;;;5.60;2.67;;;;;;;;;;4991925;28;20288;-68
2023/06/28 05:15:42;;;;;;;3.23;2.27;;;;;;;;;;4966122;28;20294;-69
2023/06/28 05:22:08;;;;;;;3.60;2.37;;;;;;;;;;4952316;29;20620;-69
2023/06/28 05:28:34;;;;;;;5.50;2.40;;;;;;;;;;4952611;29;20581;-69
2023/06/28 05:35:35;;;;;;;5.00;2.50;;;;;;;;;;4855772;29;20308;-69
2023/06/28 05:46:09;;;;;;;4.27;2.13;;;;;;;;;;4940464;28;20240;-69
2023/06/28 05:52:36;;;;;;;3.10;2.10;;;;;;;;;;4902163;29;20855;-69
2023/06/28 05:59:02;;;;;;;3.87;1.57;;;;;;;;;;4971122;28;20695;-69
2023/06/28 06:05:28;;;;;;;2.90;1.70;;;;;;;;;;4971202;28;20654;-69
2023/06/28 06:11:54;;;;;;;4.40;1.90;;;;;;;;;;4990040;28;20208;-69
2023/06/28 06:18:20;;;;;;;4.30;2.00;;;;;;;;;;4990150;28;20498;-69
2023/06/28 06:24:45;;;;;;;3.30;1.73;;;;;;;;;;4990322;28;20196;-69
2023/06/28 06:31:15;;;;;;;5.33;2.13;;;;;;;;;;4990177;28;20610;-69
2023/06/28 06:37:41;;;;;;;6.17;1.90;;;;;;;;;;4990078;28;20200;-69
2023/06/28 06:48:19;;;;;;;3.37;1.73;;;;;;;;;;5009346;28;20176;-68
2023/06/28 06:54:57;;;;;;;3.00;1.70;;;;;;;;;;5009031;28;20175;-69
2023/06/28 07:01:23;;;;;;;2.37;1.60;;;;;;;;;;4661159;28;10014026;-69
2023/06/28 07:07:50;;;;;;;5.80;1.70;;;;;;;;;;5009008;28;20257;-69
2023/06/28 07:14:16;;;;;;;3.93;1.67;;;;;;;;;;5009052;28;20298;-69
2023/06/28 07:20:43;;;;;;;3.50;1.80;;;;;;;;;;5008612;28;20206;-69
2023/06/28 07:31:40;;;;;;;4.60;1.70;;;;;;;;;;4944041;28;20244;-69
2023/06/28 07:42:05;;;;;;;2.83;1.60;;;;;;;;;;4947266;29;20194;-69
2023/06/28 07:52:36;;;;;;;2.60;1.40;;;;;;;;;;4862501;29;20227;-68
2023/06/28 07:59:10;;;;;;;3.27;1.57;;;;;;;;;;5008154;28;20275;-69
2023/06/28 08:05:37;;;;;;;2.33;1.20;;;;;;;;;;5008387;28;20179;-69
2023/06/28 08:12:04;;;;;;;5.60;1.70;;;;;;;;;;4988337;28;20623;-69
2023/06/28 08:18:34;;;;;;;4.70;1.70;;;;;;;;;;4988311;28;20188;-69
2023/06/28 08:25:03;;;;;;;3.20;1.60;;;;;;;;;;4987923;28;20183;-69
2023/06/28 08:31:35;;;;;;;3.13;1.67;;;;;;;;;;4988331;28;20224;-69
2023/06/28 08:38:01;;;;;;;8.10;2.60;;;;;;;;;;4988065;28;20223;-69
2023/06/28 08:48:26;;;;;;;8.10;3.33;;;;;;;;;;4988117;28;20171;-68
2023/06/28 08:54:56;;;;;;;4.57;2.20;;;;;;;;;;4988226;28;20564;-68
2023/06/28 09:01:23;;;;;;;2.57;1.67;;;;;;;;;;4987995;28;20818;-69
2023/06/28 09:08:25;;;;;;;6.93;2.37;;;;;;;;;;4987609;28;20182;-68
2023/06/28 09:14:52;;;;;;;4.10;2.47;;;;;;;;;;5008717;28;20256;-68
2023/06/28 09:21:25;;;;;;;3.27;2.00;;;;;;;;;;5011098;28;20175;-68
2023/06/28 09:27:53;;;;;;;4.33;1.97;;;;;;;;;;5011099;28;20331;-68
2023/06/28 09:34:33;;;;;;;2.70;1.53;;;;;;;;;;5010924;28;20183;-68
2023/06/28 09:53:12;;;;;;;3.40;1.60;;;;;;;;;;4891810;29;20186;-68
2023/06/28 09:59:38;;;;;;;6.13;2.20;;;;;;;;;;4930739;29;20173;-68
2023/06/28 10:06:04;;;;;;;2.17;1.33;;;;;;;;;;4925409;28;20276;-68
2023/06/28 10:12:30;;;;;;;4.47;1.57;;;;;;;;;;4920351;28;20312;-68
2023/06/28 10:18:58;;;;;;;3.67;1.63;;;;;;;;;;4932564;29;20248;-68
2023/06/28 10:25:26;;;;;;;2.87;1.30;;;;;;;;;;4932045;29;20226;-68
2023/06/28 10:31:53;;;;;;;2.13;1.40;;;;;;;;;;4932121;29;20170;-68
2023/06/28 10:38:20;;;;;;;2.53;1.43;;;;;;;;;;4932157;29;20217;-69
2023/06/28 11:18:10;;;;;;;4.83;1.90;;;;;;;;;;4931382;29;20195;-69
2023/06/28 11:24:37;;;;;;;1.77;1.50;;;;;;;;;;4931712;29;20648;-69
2023/06/28 11:31:15;;;;;;;2.20;1.23;;;;;;;;;;4931225;29;20238;-70
2023/06/28 11:37:45;;;;;;;3.10;1.43;;;;;;;;;;4930621;29;20399;-69
2023/06/28 11:44:12;;;;;;;2.47;1.10;;;;;;;;;;4924574;28;20233;-69
2023/06/28 11:54:45;;;;;;;4.47;1.57;;;;;;;;;;4978486;28;20212;-69
2023/06/28 12:01:20;;;;;;;2.43;1.30;;;;;;;;;;4979631;28;20293;-69
2023/06/28 12:07:46;;;;;;;4.43;1.37;;;;;;;;;;4978366;28;20214;-69
2023/06/28 12:14:12;;;;;;;2.73;1.30;;;;;;;;;;4960418;28;20224;-69
2023/06/28 12:20:37;;;;;;;3.83;1.30;;;;;;;;;;4978779;28;20270;-69
2023/06/28 12:36:13;;;;;;;1.20;0.83;;;;;;;;;;4918649;28;20233;-69
2023/06/28 12:42:39;;;;;;;2.53;1.10;;;;;;;;;;4916961;28;20380;-69
2023/06/28 12:49:05;;;;;;;2.07;1.10;;;;;;;;;;4917584;28;20220;-70
2023/06/28 12:55:38;;;;;;;3.47;1.27;;;;;;;;;;4920914;28;20233;-70
2023/06/28 13:02:04;;;;;;;1.73;1.20;;;;;;;;;;4980159;28;20709;-70
2023/06/28 13:08:30;;;;;;;2.30;1.07;;;;;;;;;;4978944;28;20278;-68
2023/06/28 13:14:58;;;;;;;1.97;1.00;;;;;;;;;;4982028;28;20227;-68
2023/06/28 13:21:24;;;;;;;1.40;1.00;;;;;;;;;;4981055;28;20223;-68
2023/06/28 13:27:50;;;;;;;1.97;1.10;;;;;;;;;;4978957;28;20298;-67
2023/06/28 13:34:17;;;;;;;1.77;1.20;;;;;;;;;;4980948;28;20802;-68
2023/06/28 13:40:43;;;;;;;3.27;1.30;;;;;;;;;;4981760;28;20590;-69
2023/06/28 13:47:09;;;;;;;3.07;1.17;;;;;;;;;;4976282;28;20227;-68
2023/06/28 13:58:26;;;;;;;2.13;1.20;;;;;;;;;;4883276;29;20398;-68
2023/06/28 14:04:53;;;;;;;2.30;1.30;;;;;;;;;;4864906;29;20776;-68
2023/06/28 14:11:20;;;;;;;3.67;1.20;;;;;;;;;;4882767;29;20249;-68
2023/06/28 14:17:47;;;;;;;3.20;1.47;;;;;;;;;;4941746;28;20244;-68
2023/06/28 14:24:13;;;;;;;1.73;1.20;;;;;;;;;;4921603;28;20300;-68
2023/06/28 14:31:16;;;;;;;1.47;1.10;;;;;;;;;;4942478;28;20276;-69
2023/06/28 14:48:38;;;;;;;1.33;0.90;;;;;;;;;;4912673;29;20749;-70
2023/06/28 14:59:09;;;;;;;2.53;1.20;;;;;;;;;;4912458;29;20223;-71
2023/06/28 15:05:48;;;;;;;1.97;1.17;;;;;;;;;;4931980;29;20274;-71
2023/06/28 15:12:51;;;;;;;1.80;1.00;;;;;;;;;;4874113;29;20707;-68
2023/06/28 15:19:53;;;;;;;1.30;1.20;;;;;;;;;;4893860;29;20313;-68
2023/06/28 15:26:19;;;;;;;2.30;1.30;;;;;;;;;;4893264;29;20304;-70
2023/06/28 15:32:45;;;;;;;3.10;1.30;;;;;;;;;;4901978;29;20254;-69
2023/06/28 15:39:11;;;;;;;3.00;1.20;;;;;;;;;;4919230;28;20190;-69
2023/06/28 15:45:39;;;;;;;2.63;1.37;;;;;;;;;;4972235;28;20293;-69
2023/06/28 15:52:16;;;;;;;1.50;1.10;;;;;;;;;;4972115;28;20188;-69
2023/06/28 16:03:12;;;;;;;1.83;1.20;;;;;;;;;;4963066;28;20211;-69
2023/06/28 16:14:15;;;;;;;1.30;1.20;;;;;;;;;;4870003;29;20258;-70
2023/06/28 16:24:33;;;;;;;1.77;1.40;;;;;;;;;;4874299;29;20267;-70
2023/06/28 16:34:58;;;;;;;1.50;1.20;;;;;;;;;;4861332;29;20323;-71
2023/06/28 16:41:36;;;;;;;4.27;1.20;;;;;;;;;;4920436;28;20218;-71
2023/06/28 16:47:56;;;;;;;1.47;1.30;;;;;;;;;;4923010;28;42363;-72
2023/06/28 16:54:34;;;;;;;29.97;4.07;;;;;;;;;;4923800;28;20224;-71
2023/06/28 17:05:29;;;;;;;1.97;1.40;;;;;;;;;;4929252;28;20281;-72
2023/06/28 17:16:34;;;;;;;2.53;1.63;;;;;;;;;;4913062;28;20236;-72
2023/06/28 17:26:56;;;;;;;6.13;2.10;;;;;;;;;;4893586;29;20358;-72
2023/06/28 17:37:24;;;;;;;2.40;1.07;;;;;;;;;;4900547;29;20265;-76
2023/06/28 17:44:02;;;;;;;2.53;1.50;;;;;;;;;;4942847;28;20286;-71
2023/06/28 17:50:39;;;;;;;3.37;1.87;;;;;;;;;;4923191;29;20261;-70
2023/06/28 17:57:41;;;;;;;3.43;1.50;;;;;;;;;;4913631;29;20962;-71
2023/06/28 18:12:23;;;;;;;2.37;1.20;;;;;;;;;;4914387;29;20182;-71
2023/06/28 18:19:25;;;;;;;4.83;1.47;;;;;;;;;;4896160;29;20202;-67
2023/06/28 18:25:52;;;;;;;1.83;1.20;;;;;;;;;;4930542;29;20226;-67
2023/06/28 18:47:54;;;;;;;1.80;1.40;;;;;;;;;;4862175;29;20226;-67
2023/06/28 19:05:25;;;;;;;7.67;4.90;;;;;;;;;;4891906;29;20178;-67
2023/06/28 19:16:35;;;;;;;3.03;2.10;;;;;;;;;;4932036;29;20197;-71
2023/06/28 19:23:03;;;;;;;2.60;1.97;;;;;;;;;;4970107;28;20248;-66
2023/06/28 19:29:30;;;;;;;3.20;2.63;;;;;;;;;;4970436;28;20191;-70
2023/06/28 19:35:57;;;;;;;4.03;2.10;;;;;;;;;;4951209;29;20261;-67
2023/06/28 19:54:03;;;;;;;2.97;1.60;;;;;;;;;;4933961;28;20220;-67
2023/06/28 20:00:30;;;;;;;2.53;2.13;;;;;;;;;;4900399;29;20903;-67
2023/06/28 20:06:56;;;;;;;2.60;2.00;;;;;;;;;;4939393;28;20216;-67
2023/06/28 20:17:29;;;;;;;3.03;2.40;;;;;;;;;;4957462;28;20228;-68
2023/06/28 20:23:58;;;;;;;3.70;2.43;;;;;;;;;;4957731;28;20279;-68
2023/06/28 20:30:24;;;;;;;3.27;2.50;;;;;;;;;;4958694;28;20360;-68
2023/06/28 20:47:39;;;;;;;4.73;3.80;;;;;;;;;;4958795;28;20231;-68
2023/06/28 20:54:16;;;;;;;5.47;3.70;;;;;;;;;;4958373;28;20266;-67
2023/06/28 21:00:46;;;;;;;6.27;4.20;;;;;;;;;;4958194;28;20227;-67
2023/06/28 21:07:49;;;;;;;4.93;3.83;;;;;;;;;;4958268;28;20231;-68
2023/06/28 21:18:30;;;;;;;6.10;5.00;;;;;;;;;;4982057;28;20247;-68
2023/06/28 21:24:56;;;;;;;5.60;5.10;;;;;;;;;;4982027;28;20301;-68
2023/06/28 21:31:22;;;;;;;6.00;5.40;;;;;;;;;;4980910;28;20250;-68
2023/06/28 21:37:48;;;;;;;6.27;5.53;;;;;;;;;;4981529;28;20230;-68
2023/06/28 21:44:13;;;;;;;7.33;6.10;;;;;;;;;;4981261;28;20230;-68
2023/06/28 21:50:39;;;;;;;10.43;7.50;;;;;;;;;;4965713;28;20250;-69
2023/06/28 22:01:04;;;;;;;12.10;9.13;;;;;;;;;;4980791;28;20269;-67
2023/06/28 22:07:30;;;;;;;11.00;9.80;;;;;;;;;;4981084;28;20218;-67
2023/06/28 22:18:03;;;;;;;12.80;10.60;;;;;;;;;;4980437;28;20243;-68
2023/06/28 22:24:28;;;;;;;14.90;11.40;;;;;;;;;;4979298;28;20305;-68
2023/06/28 22:30:55;;;;;;;14.83;11.47;;;;;;;;;;4980447;28;20224;-67
2023/06/28 22:37:20;;;;;;;16.00;13.50;;;;;;;;;;4980329;28;20281;-68
2023/06/28 22:43:47;;;;;;;17.57;14.00;;;;;;;;;;4980568;28;20343;-68
2023/06/28 22:54:51;;;;;;;17.27;15.37;;;;;;;;;;4918929;28;20241;-70
2023/06/28 23:05:09;;;;;;;18.83;16.63;;;;;;;;;;4919520;28;20313;-68
2023/06/28 23:20:05;;;;;;;19.17;16.77;;;;;;;;;;4922038;28;20327;-69
2023/06/28 23:26:31;;;;;;;19.13;16.53;;;;;;;;;;4921427;28;20232;-67
2023/06/28 23:32:57;;;;;;;21.50;18.40;;;;;;;;;;4926694;28;20267;-68
2023/06/28 23:39:22;;;;;;;19.17;17.10;;;;;;;;;;4939891;28;20318;-68
2023/06/28 23:45:49;;;;;;;20.27;17.97;;;;;;;;;;4940645;28;20213;-68
2023/06/28 23:52:16;;;;;;;19.30;17.20;;;;;;;;;;4943296;28;20303;-68
2023/06/28 23:58:42;;;;;;;20.73;16.87;;;;;;;;;;4950942;28;20283;-68
